Marine Ace — JD3235 — position and weather

sailwx.info

Track history (hours):
 
Tides and Currents Weather Stations Pressure Air Temp Water Temp Dewpoint Dewpoint Depression Visibility Wind Speed Wind Dir Waves Ship Positions

Marine Ace

Last reported at 2018-Jun-19 14:16 UTC. Time now 2018-Jun-19 18:03 UTC.
Position N 33°51' E 135°03'.

Length 68 m; draft 4.3 m.

Type: Tanker. MMSI: 431002799.

Date/timePositionNaut miles runAvg speedWind from/ knotsBaromVisibWave heightAir tempDewpointWater temp
2018-Jun-19 14:16N 33°51' E 135°03'310.0
2018-Jun-19 14:01N 33°53' E 135°01'510.4
2018-Jun-19 13:31N 33°57' E 134°56'911.2
2018-Jun-19 12:45N 34°03' E 134°49'1911.1
2018-Jun-19 11:02N 34°17' E 134°34'011.8
2018-Jun-19 11:00N 34°17' E 134°33'1011.8
2018-Jun-19 10:07N 34°21' E 134°21'  
2018-Jun-15 09:31N 34°24' E 134°18'112.1
2018-Jun-15 09:27N 34°24' E 134°19'512.2
2018-Jun-15 09:00N 34°22' E 134°25'612.3
2018-Jun-15 08:30N 34°19' E 134°31'1711.7
2018-Jun-15 07:02N 34°07' E 134°46'110.9
2018-Jun-15 06:59N 34°06' E 134°47'14 8.0
2018-Jun-15 05:12N 34°19' E 134°38'312.3
2018-Jun-15 04:59N 34°21' E 134°38'612.3
2018-Jun-15 04:30N 34°27' E 134°38'612.4
2018-Jun-15 04:00N 34°33' E 134°38'612.4
2018-Jun-15 03:29N 34°40' E 134°38'2 0.2
2018-Jun-14 13:00N 34°42' E 134°37'611.2
2018-Jun-14 12:29N 34°36' E 134°38'511.2
2018-Jun-14 12:00N 34°31' E 134°37'611.3
2018-Jun-14 11:30N 34°25' E 134°38'611.6
2018-Jun-14 11:00N 34°20' E 134°38'1412.4
2018-Jun-14 09:53N 34°08' E 134°47'512.2
2018-Jun-14 09:30N 34°04' E 134°51'612.1
2018-Jun-14 09:00N 33°60' E 134°55'612.1
2018-Jun-14 08:31N 33°55' E 135°00'244 9.8
2018-Jun-13 07:37N 35°08' E 139°43'111.5
2018-Jun-13 07:30N 35°09' E 139°44'610.9
2018-Jun-13 07:00N 35°15' E 139°46'510.6
2018-Jun-13 06:30N 35°19' E 139°43'510.9
2018-Jun-13 06:01N 35°25' E 139°43'510.9
2018-Jun-13 05:31N 35°28' E 139°48'5 0.4
2018-Jun-12 17:36N 35°29' E 139°54'111.5
2018-Jun-12 17:29N 35°29' E 139°52'612.1
2018-Jun-12 17:00N 35°25' E 139°47'612.1
2018-Jun-12 16:31N 35°19' E 139°44'611.6
2018-Jun-12 16:00N 35°14' E 139°47'24810.9
2018-Jun-11 17:16N 33°50' E 135°04'312.4
2018-Jun-11 17:00N 33°52' E 135°02'612.3
2018-Jun-11 16:30N 33°57' E 134°57'912.2
2018-Jun-11 15:47N 34°03' E 134°50'2012.8
2018-Jun-11 14:13N 34°17' E 134°32'312.3
2018-Jun-11 13:59N 34°18' E 134°29'612.1
2018-Jun-11 13:30N 34°21' E 134°23'  
Track history (hours):
 
Tides and Currents Weather Stations Pressure Air Temp Water Temp Dewpoint Dewpoint Depression Visibility Wind Speed Wind Dir Waves Ship Positions

Marine Ace

Last reported at 2018-Jun-19 14:16 UTC. Time now 2018-Jun-19 18:03 UTC.
Position N 33°51' E 135°03'.

Length 68 m; draft 4.3 m.

Type: Tanker. MMSI: 431002799.

Date/timePositionNaut miles runAvg speedWind from/ knotsBaromVisibWave heightAir tempDewpointWater temp
2018-Jun-19 14:16N 33°51' E 135°03'310.0
2018-Jun-19 14:01N 33°53' E 135°01'510.4
2018-Jun-19 13:31N 33°57' E 134°56'911.2
2018-Jun-19 12:45N 34°03' E 134°49'1911.1
2018-Jun-19 11:02N 34°17' E 134°34'011.8
2018-Jun-19 11:00N 34°17' E 134°33'1011.8
2018-Jun-19 10:07N 34°21' E 134°21'  
2018-Jun-15 09:31N 34°24' E 134°18'112.1
2018-Jun-15 09:27N 34°24' E 134°19'512.2
2018-Jun-15 09:00N 34°22' E 134°25'612.3
2018-Jun-15 08:30N 34°19' E 134°31'1711.7
2018-Jun-15 07:02N 34°07' E 134°46'110.9
2018-Jun-15 06:59N 34°06' E 134°47'14 8.0
2018-Jun-15 05:12N 34°19' E 134°38'312.3
2018-Jun-15 04:59N 34°21' E 134°38'612.3
2018-Jun-15 04:30N 34°27' E 134°38'612.4
2018-Jun-15 04:00N 34°33' E 134°38'612.4
2018-Jun-15 03:29N 34°40' E 134°38'2 0.2
2018-Jun-14 13:00N 34°42' E 134°37'611.2
2018-Jun-14 12:29N 34°36' E 134°38'511.2
2018-Jun-14 12:00N 34°31' E 134°37'611.3
2018-Jun-14 11:30N 34°25' E 134°38'611.6
2018-Jun-14 11:00N 34°20' E 134°38'1412.4
2018-Jun-14 09:53N 34°08' E 134°47'512.2
2018-Jun-14 09:30N 34°04' E 134°51'612.1
2018-Jun-14 09:00N 33°60' E 134°55'612.1
2018-Jun-14 08:31N 33°55' E 135°00'244 9.8
2018-Jun-13 07:37N 35°08' E 139°43'111.5
2018-Jun-13 07:30N 35°09' E 139°44'610.9
2018-Jun-13 07:00N 35°15' E 139°46'510.6
2018-Jun-13 06:30N 35°19' E 139°43'510.9
2018-Jun-13 06:01N 35°25' E 139°43'510.9
2018-Jun-13 05:31N 35°28' E 139°48'5 0.4
2018-Jun-12 17:36N 35°29' E 139°54'111.5
2018-Jun-12 17:29N 35°29' E 139°52'612.1
2018-Jun-12 17:00N 35°25' E 139°47'612.1
2018-Jun-12 16:31N 35°19' E 139°44'611.6
2018-Jun-12 16:00N 35°14' E 139°47'24810.9
2018-Jun-11 17:16N 33°50' E 135°04'312.4
2018-Jun-11 17:00N 33°52' E 135°02'612.3
2018-Jun-11 16:30N 33°57' E 134°57'912.2
2018-Jun-11 15:47N 34°03' E 134°50'2012.8
2018-Jun-11 14:13N 34°17' E 134°32'312.3
2018-Jun-11 13:59N 34°18' E 134°29'612.1
2018-Jun-11 13:30N 34°21' E 134°23'  

Dump ship's entire track history